sensor_id;sensor_type;location;lat;lon;timestamp;temperature;humidity
21502;DHT22;27639;48.674;9.242;2023-03-15T00:01:49;6.30;59.80
21502;DHT22;27639;48.674;9.242;2023-03-15T00:04:15;6.30;59.80
21502;DHT22;27639;48.674;9.242;2023-03-15T00:06:41;6.30;59.80
21502;DHT22;27639;48.674;9.242;2023-03-15T00:09:06;6.30;59.70
21502;DHT22;27639;48.674;9.242;2023-03-15T00:11:32;6.40;59.70
21502;DHT22;27639;48.674;9.242;2023-03-15T00:13:58;6.40;59.70
21502;DHT22;27639;48.674;9.242;2023-03-15T00:16:26;6.50;59.70
21502;DHT22;27639;48.674;9.242;2023-03-15T00:18:53;6.60;59.70
21502;DHT22;27639;48.674;9.242;2023-03-15T00:21:19;6.60;59.80
21502;DHT22;27639;48.674;9.242;2023-03-15T00:23:45;6.60;59.80
21502;DHT22;27639;48.674;9.242;2023-03-15T00:26:11;6.60;59.70
21502;DHT22;27639;48.674;9.242;2023-03-15T00:28:38;6.60;59.70
21502;DHT22;27639;48.674;9.242;2023-03-15T00:33:29;6.50;59.60
21502;DHT22;27639;48.674;9.242;2023-03-15T00:36:02;6.50;59.60
21502;DHT22;27639;48.674;9.242;2023-03-15T00:38:29;6.50;59.50
21502;DHT22;27639;48.674;9.242;2023-03-15T00:40:54;6.50;59.50
21502;DHT22;27639;48.674;9.242;2023-03-15T00:43:20;6.50;59.50
21502;DHT22;27639;48.674;9.242;2023-03-15T00:45:45;6.50;59.50
21502;DHT22;27639;48.674;9.242;2023-03-15T00:48:11;6.50;59.20
21502;DHT22;27639;48.674;9.242;2023-03-15T00:50:37;6.50;59.30
21502;DHT22;27639;48.674;9.242;2023-03-15T00:53:02;6.60;59.30
21502;DHT22;27639;48.674;9.242;2023-03-15T00:55:28;6.50;59.20
21502;DHT22;27639;48.674;9.242;2023-03-15T00:57:53;6.50;59.20
21502;DHT22;27639;48.674;9.242;2023-03-15T01:00:20;6.40;59.10
21502;DHT22;27639;48.674;9.242;2023-03-15T01:02:49;6.30;59.20
21502;DHT22;27639;48.674;9.242;2023-03-15T01:05:15;6.30;59.30
21502;DHT22;27639;48.674;9.242;2023-03-15T01:07:41;6.30;59.50
21502;DHT22;27639;48.674;9.242;2023-03-15T01:10:07;6.30;59.30
21502;DHT22;27639;48.674;9.242;2023-03-15T01:12:33;6.40;59.30
21502;DHT22;27639;48.674;9.242;2023-03-15T01:15:00;6.40;59.30
21502;DHT22;27639;48.674;9.242;2023-03-15T01:17:25;6.40;59.30
21502;DHT22;27639;48.674;9.242;2023-03-15T01:19:51;6.50;59.40
21502;DHT22;27639;48.674;9.242;2023-03-15T01:22:18;6.50;59.40
21502;DHT22;27639;48.674;9.242;2023-03-15T01:24:43;6.50;59.30
21502;DHT22;27639;48.674;9.242;2023-03-15T01:27:12;6.50;59.20
21502;DHT22;27639;48.674;9.242;2023-03-15T01:29:38;6.50;59.20
21502;DHT22;27639;48.674;9.242;2023-03-15T01:32:04;6.50;59.20
21502;DHT22;27639;48.674;9.242;2023-03-15T01:34:30;6.50;59.20
21502;DHT22;27639;48.674;9.242;2023-03-15T01:36:55;6.50;59.00
21502;DHT22;27639;48.674;9.242;2023-03-15T01:39:21;6.40;58.90
21502;DHT22;27639;48.674;9.242;2023-03-15T01:41:46;6.30;58.70
21502;DHT22;27639;48.674;9.242;2023-03-15T01:44:17;6.30;58.80
21502;DHT22;27639;48.674;9.242;2023-03-15T01:46:43;6.20;58.70
21502;DHT22;27639;48.674;9.242;2023-03-15T01:49:25;6.10;58.60
21502;DHT22;27639;48.674;9.242;2023-03-15T01:51:59;6.10;58.70
21502;DHT22;27639;48.674;9.242;2023-03-15T02:00:09;5.80;58.70
21502;DHT22;27639;48.674;9.242;2023-03-15T02:02:40;5.80;58.90
21502;DHT22;27639;48.674;9.242;2023-03-15T02:05:11;5.80;58.70
21502;DHT22;27639;48.674;9.242;2023-03-15T02:07:41;5.80;58.70
21502;DHT22;27639;48.674;9.242;2023-03-15T02:10:17;5.80;58.70
21502;DHT22;27639;48.674;9.242;2023-03-15T02:12:47;5.80;58.60
21502;DHT22;27639;48.674;9.242;2023-03-15T02:15:15;5.70;58.60
21502;DHT22;27639;48.674;9.242;2023-03-15T02:17:44;5.70;58.70
21502;DHT22;27639;48.674;9.242;2023-03-15T02:23:08;5.80;58.50
21502;DHT22;27639;48.674;9.242;2023-03-15T02:25:50;5.70;58.60
21502;DHT22;27639;48.674;9.242;2023-03-15T02:28:17;5.80;58.60
21502;DHT22;27639;48.674;9.242;2023-03-15T02:30:44;5.70;58.40
21502;DHT22;27639;48.674;9.242;2023-03-15T02:33:24;5.70;58.20
21502;DHT22;27639;48.674;9.242;2023-03-15T02:35:51;5.70;58.10
21502;DHT22;27639;48.674;9.242;2023-03-15T02:38:17;5.60;58.00
21502;DHT22;27639;48.674;9.242;2023-03-15T02:40:47;5.60;58.00
21502;DHT22;27639;48.674;9.242;2023-03-15T02:43:16;5.60;58.10
21502;DHT22;27639;48.674;9.242;2023-03-15T02:45:44;5.50;58.10
21502;DHT22;27639;48.674;9.242;2023-03-15T02:48:10;5.50;58.20
21502;DHT22;27639;48.674;9.242;2023-03-15T02:50:37;5.50;58.20
21502;DHT22;27639;48.674;9.242;2023-03-15T02:53:03;5.50;58.20
21502;DHT22;27639;48.674;9.242;2023-03-15T02:55:29;5.40;58.10
21502;DHT22;27639;48.674;9.242;2023-03-15T02:57:57;5.40;58.20
21502;DHT22;27639;48.674;9.242;2023-03-15T03:00:23;5.50;58.30
21502;DHT22;27639;48.674;9.242;2023-03-15T03:02:49;5.50;58.30
21502;DHT22;27639;48.674;9.242;2023-03-15T03:05:15;5.40;58.20
21502;DHT22;27639;48.674;9.242;2023-03-15T03:07:41;5.40;58.30
21502;DHT22;27639;48.674;9.242;2023-03-15T03:10:12;5.20;58.20
21502;DHT22;27639;48.674;9.242;2023-03-15T03:12:38;5.10;58.30
21502;DHT22;27639;48.674;9.242;2023-03-15T03:15:04;5.10;58.50
21502;DHT22;27639;48.674;9.242;2023-03-15T03:17:29;5.00;58.50
21502;DHT22;27639;48.674;9.242;2023-03-15T03:19:55;5.00;58.70
21502;DHT22;27639;48.674;9.242;2023-03-15T03:22:21;4.90;58.60
21502;DHT22;27639;48.674;9.242;2023-03-15T03:24:49;4.90;59.40
21502;DHT22;27639;48.674;9.242;2023-03-15T03:27:15;4.90;58.70
21502;DHT22;27639;48.674;9.242;2023-03-15T03:29:41;4.90;58.70
21502;DHT22;27639;48.674;9.242;2023-03-15T03:32:07;4.90;58.80
21502;DHT22;27639;48.674;9.242;2023-03-15T03:34:33;4.80;58.80
21502;DHT22;27639;48.674;9.242;2023-03-15T03:36:59;4.80;58.80
21502;DHT22;27639;48.674;9.242;2023-03-15T03:39:24;4.80;58.80
21502;DHT22;27639;48.674;9.242;2023-03-15T03:41:50;4.90;59.00
21502;DHT22;27639;48.674;9.242;2023-03-15T03:44:16;4.90;58.90
21502;DHT22;27639;48.674;9.242;2023-03-15T03:46:42;4.90;58.80
21502;DHT22;27639;48.674;9.242;2023-03-15T03:49:07;4.90;58.70
21502;DHT22;27639;48.674;9.242;2023-03-15T03:51:33;5.00;58.70
21502;DHT22;27639;48.674;9.242;2023-03-15T03:54:00;5.00;58.70
21502;DHT22;27639;48.674;9.242;2023-03-15T03:56:25;5.00;58.60
21502;DHT22;27639;48.674;9.242;2023-03-15T03:58:51;4.90;58.60
21502;DHT22;27639;48.674;9.242;2023-03-15T04:01:17;4.80;58.50
21502;DHT22;27639;48.674;9.242;2023-03-15T04:03:43;4.80;59.20
21502;DHT22;27639;48.674;9.242;2023-03-15T04:06:08;4.80;58.50
21502;DHT22;27639;48.674;9.242;2023-03-15T04:08:34;4.80;58.50
21502;DHT22;27639;48.674;9.242;2023-03-15T04:10:59;4.70;58.40
21502;DHT22;27639;48.674;9.242;2023-03-15T04:13:28;4.70;58.40
21502;DHT22;27639;48.674;9.242;2023-03-15T04:15:54;4.70;58.30
21502;DHT22;27639;48.674;9.242;2023-03-15T04:18:22;4.70;58.30
21502;DHT22;27639;48.674;9.242;2023-03-15T04:20:48;4.70;58.30
21502;DHT22;27639;48.674;9.242;2023-03-15T04:23:17;4.70;58.20
21502;DHT22;27639;48.674;9.242;2023-03-15T04:25:47;4.80;58.30
21502;DHT22;27639;48.674;9.242;2023-03-15T04:28:14;4.80;58.30
21502;DHT22;27639;48.674;9.242;2023-03-15T04:30:39;4.80;58.30
21502;DHT22;27639;48.674;9.242;2023-03-15T04:33:08;4.80;58.30
21502;DHT22;27639;48.674;9.242;2023-03-15T04:35:35;4.80;58.20
21502;DHT22;27639;48.674;9.242;2023-03-15T04:38:01;4.80;58.10
21502;DHT22;27639;48.674;9.242;2023-03-15T04:40:29;4.90;58.20
21502;DHT22;27639;48.674;9.242;2023-03-15T04:42:55;4.80;58.70
21502;DHT22;27639;48.674;9.242;2023-03-15T04:45:24;4.80;58.00
21502;DHT22;27639;48.674;9.242;2023-03-15T04:47:50;4.90;58.00
21502;DHT22;27639;48.674;9.242;2023-03-15T04:50:17;4.80;58.00
21502;DHT22;27639;48.674;9.242;2023-03-15T04:52:42;4.80;58.00
21502;DHT22;27639;48.674;9.242;2023-03-15T04:55:08;4.80;58.00
21502;DHT22;27639;48.674;9.242;2023-03-15T04:57:34;4.80;57.90
21502;DHT22;27639;48.674;9.242;2023-03-15T05:00:00;4.80;57.90
21502;DHT22;27639;48.674;9.242;2023-03-15T05:02:26;4.80;57.90
21502;DHT22;27639;48.674;9.242;2023-03-15T05:04:51;4.80;58.00
21502;DHT22;27639;48.674;9.242;2023-03-15T05:07:17;4.80;58.00
21502;DHT22;27639;48.674;9.242;2023-03-15T05:09:42;4.70;57.80
21502;DHT22;27639;48.674;9.242;2023-03-15T05:12:11;4.80;57.90
21502;DHT22;27639;48.674;9.242;2023-03-15T05:14:37;4.80;58.00
21502;DHT22;27639;48.674;9.242;2023-03-15T05:17:03;4.80;57.90
21502;DHT22;27639;48.674;9.242;2023-03-15T05:19:29;4.70;57.80
21502;DHT22;27639;48.674;9.242;2023-03-15T05:21:59;4.70;57.80
21502;DHT22;27639;48.674;9.242;2023-03-15T05:24:25;4.70;57.80
21502;DHT22;27639;48.674;9.242;2023-03-15T05:26:50;4.60;58.40
21502;DHT22;27639;48.674;9.242;2023-03-15T05:29:19;4.50;57.70
21502;DHT22;27639;48.674;9.242;2023-03-15T05:31:46;4.50;57.80
21502;DHT22;27639;48.674;9.242;2023-03-15T05:34:12;4.40;57.80
21502;DHT22;27639;48.674;9.242;2023-03-15T05:36:38;4.30;57.80
21502;DHT22;27639;48.674;9.242;2023-03-15T05:39:03;4.30;58.00
21502;DHT22;27639;48.674;9.242;2023-03-15T05:41:29;4.30;58.00
21502;DHT22;27639;48.674;9.242;2023-03-15T05:43:55;4.30;58.00
21502;DHT22;27639;48.674;9.242;2023-03-15T05:46:20;4.30;58.00
21502;DHT22;27639;48.674;9.242;2023-03-15T05:48:47;4.30;57.90
21502;DHT22;27639;48.674;9.242;2023-03-15T05:51:13;4.30;58.00
21502;DHT22;27639;48.674;9.242;2023-03-15T05:53:38;4.30;58.00
21502;DHT22;27639;48.674;9.242;2023-03-15T05:56:04;4.20;58.00
21502;DHT22;27639;48.674;9.242;2023-03-15T05:58:30;4.30;58.10
21502;DHT22;27639;48.674;9.242;2023-03-15T06:00:56;4.30;58.20
21502;DHT22;27639;48.674;9.242;2023-03-15T06:03:22;4.30;58.30
21502;DHT22;27639;48.674;9.242;2023-03-15T06:05:47;4.20;58.20
21502;DHT22;27639;48.674;9.242;2023-03-15T06:08:13;4.30;58.30
21502;DHT22;27639;48.674;9.242;2023-03-15T06:10:38;4.30;58.10
21502;DHT22;27639;48.674;9.242;2023-03-15T06:13:04;4.40;58.20
21502;DHT22;27639;48.674;9.242;2023-03-15T06:15:30;4.40;58.10
21502;DHT22;27639;48.674;9.242;2023-03-15T06:17:55;4.50;58.00
21502;DHT22;27639;48.674;9.242;2023-03-15T06:20:21;4.50;58.00
21502;DHT22;27639;48.674;9.242;2023-03-15T06:22:47;4.60;57.90
21502;DHT22;27639;48.674;9.242;2023-03-15T06:25:12;4.60;57.90
21502;DHT22;27639;48.674;9.242;2023-03-15T06:27:38;4.60;57.80
21502;DHT22;27639;48.674;9.242;2023-03-15T06:30:04;4.50;57.70
21502;DHT22;27639;48.674;9.242;2023-03-15T06:32:30;4.50;57.70
21502;DHT22;27639;48.674;9.242;2023-03-15T06:34:56;4.50;57.70
21502;DHT22;27639;48.674;9.242;2023-03-15T06:37:21;4.50;57.80
21502;DHT22;27639;48.674;9.242;2023-03-15T06:39:47;4.40;57.80
21502;DHT22;27639;48.674;9.242;2023-03-15T06:42:15;4.50;57.80
21502;DHT22;27639;48.674;9.242;2023-03-15T06:44:41;4.50;57.80
21502;DHT22;27639;48.674;9.242;2023-03-15T06:47:09;4.70;57.80
21502;DHT22;27639;48.674;9.242;2023-03-15T06:49:35;4.80;57.90
21502;DHT22;27639;48.674;9.242;2023-03-15T06:52:00;4.80;57.80
21502;DHT22;27639;48.674;9.242;2023-03-15T06:54:26;4.80;57.90
21502;DHT22;27639;48.674;9.242;2023-03-15T06:56:52;4.90;58.30
21502;DHT22;27639;48.674;9.242;2023-03-15T06:59:17;5.00;58.60
21502;DHT22;27639;48.674;9.242;2023-03-15T07:01:43;5.10;58.30
21502;DHT22;27639;48.674;9.242;2023-03-15T07:04:08;5.30;58.40
21502;DHT22;27639;48.674;9.242;2023-03-15T07:06:34;5.40;58.00
21502;DHT22;27639;48.674;9.242;2023-03-15T07:09:01;5.60;58.10
21502;DHT22;27639;48.674;9.242;2023-03-15T07:11:27;5.80;58.00
21502;DHT22;27639;48.674;9.242;2023-03-15T07:13:52;5.90;57.30
21502;DHT22;27639;48.674;9.242;2023-03-15T07:16:18;6.10;56.90
21502;DHT22;27639;48.674;9.242;2023-03-15T07:18:43;6.20;56.30
21502;DHT22;27639;48.674;9.242;2023-03-15T07:21:09;6.30;56.20
21502;DHT22;27639;48.674;9.242;2023-03-15T07:23:35;6.40;55.90
21502;DHT22;27639;48.674;9.242;2023-03-15T07:26:00;6.40;55.60
21502;DHT22;27639;48.674;9.242;2023-03-15T07:28:26;6.60;55.70
21502;DHT22;27639;48.674;9.242;2023-03-15T07:31:00;6.70;55.40
21502;DHT22;27639;48.674;9.242;2023-03-15T07:33:27;6.80;55.00
21502;DHT22;27639;48.674;9.242;2023-03-15T07:35:54;6.90;55.00
21502;DHT22;27639;48.674;9.242;2023-03-15T07:38:24;7.00;54.90
21502;DHT22;27639;48.674;9.242;2023-03-15T07:40:50;7.00;54.60
21502;DHT22;27639;48.674;9.242;2023-03-15T07:43:16;7.00;54.70
21502;DHT22;27639;48.674;9.242;2023-03-15T07:45:42;7.00;54.50
21502;DHT22;27639;48.674;9.242;2023-03-15T07:48:07;7.00;54.50
21502;DHT22;27639;48.674;9.242;2023-03-15T07:50:33;7.10;54.50
21502;DHT22;27639;48.674;9.242;2023-03-15T07:52:59;7.20;54.40
21502;DHT22;27639;48.674;9.242;2023-03-15T07:55:24;7.30;54.60
21502;DHT22;27639;48.674;9.242;2023-03-15T07:57:50;7.50;54.30
21502;DHT22;27639;48.674;9.242;2023-03-15T08:00:17;7.50;54.00
21502;DHT22;27639;48.674;9.242;2023-03-15T08:02:43;7.60;53.70
21502;DHT22;27639;48.674;9.242;2023-03-15T08:05:09;7.70;53.50
21502;DHT22;27639;48.674;9.242;2023-03-15T08:07:35;7.70;53.50
21502;DHT22;27639;48.674;9.242;2023-03-15T08:10:04;7.80;53.20
21502;DHT22;27639;48.674;9.242;2023-03-15T08:12:30;7.90;53.10
21502;DHT22;27639;48.674;9.242;2023-03-15T08:14:57;8.00;53.20
21502;DHT22;27639;48.674;9.242;2023-03-15T08:17:23;8.20;53.30
21502;DHT22;27639;48.674;9.242;2023-03-15T08:19:48;8.40;53.00
21502;DHT22;27639;48.674;9.242;2023-03-15T08:22:14;8.30;51.70
21502;DHT22;27639;48.674;9.242;2023-03-15T08:24:40;8.30;52.10
21502;DHT22;27639;48.674;9.242;2023-03-15T08:27:06;8.20;52.00
21502;DHT22;27639;48.674;9.242;2023-03-15T08:29:32;8.30;52.20
21502;DHT22;27639;48.674;9.242;2023-03-15T08:31:57;8.30;51.60
21502;DHT22;27639;48.674;9.242;2023-03-15T08:34:24;8.40;51.70
21502;DHT22;27639;48.674;9.242;2023-03-15T08:36:49;8.50;51.30
21502;DHT22;27639;48.674;9.242;2023-03-15T08:39:15;8.50;50.70
21502;DHT22;27639;48.674;9.242;2023-03-15T08:41:41;8.60;51.50
21502;DHT22;27639;48.674;9.242;2023-03-15T08:44:08;8.70;51.20
21502;DHT22;27639;48.674;9.242;2023-03-15T08:46:34;8.80;51.30
21502;DHT22;27639;48.674;9.242;2023-03-15T08:49:00;9.00;51.60
21502;DHT22;27639;48.674;9.242;2023-03-15T08:51:26;9.10;50.90
21502;DHT22;27639;48.674;9.242;2023-03-15T08:53:53;9.20;49.70
21502;DHT22;27639;48.674;9.242;2023-03-15T08:56:19;9.20;49.00
21502;DHT22;27639;48.674;9.242;2023-03-15T08:58:45;9.20;48.90
21502;DHT22;27639;48.674;9.242;2023-03-15T09:01:11;9.30;49.00
21502;DHT22;27639;48.674;9.242;2023-03-15T09:03:37;9.40;48.10
21502;DHT22;27639;48.674;9.242;2023-03-15T09:06:03;9.40;47.50
21502;DHT22;27639;48.674;9.242;2023-03-15T09:08:29;9.50;47.30
21502;DHT22;27639;48.674;9.242;2023-03-15T09:10:55;9.60;47.80
21502;DHT22;27639;48.674;9.242;2023-03-15T09:13:21;9.80;47.20
21502;DHT22;27639;48.674;9.242;2023-03-15T09:15:51;9.80;47.00
21502;DHT22;27639;48.674;9.242;2023-03-15T09:18:18;9.90;46.90
21502;DHT22;27639;48.674;9.242;2023-03-15T09:20:44;10.00;45.60
21502;DHT22;27639;48.674;9.242;2023-03-15T09:23:09;9.90;45.70
21502;DHT22;27639;48.674;9.242;2023-03-15T09:25:35;9.80;45.30
21502;DHT22;27639;48.674;9.242;2023-03-15T09:28:05;9.70;46.00
21502;DHT22;27639;48.674;9.242;2023-03-15T09:30:31;9.80;46.80
21502;DHT22;27639;48.674;9.242;2023-03-15T09:32:57;10.00;46.00
21502;DHT22;27639;48.674;9.242;2023-03-15T09:35:22;10.10;45.90
21502;DHT22;27639;48.674;9.242;2023-03-15T09:37:48;10.20;45.70
21502;DHT22;27639;48.674;9.242;2023-03-15T09:40:22;10.10;44.70
21502;DHT22;27639;48.674;9.242;2023-03-15T09:46:01;10.10;44.90
21502;DHT22;27639;48.674;9.242;2023-03-15T09:48:39;10.00;44.60
21502;DHT22;27639;48.674;9.242;2023-03-15T09:56:26;9.90;45.50
21502;DHT22;27639;48.674;9.242;2023-03-15T09:58:58;9.80;45.60
21502;DHT22;27639;48.674;9.242;2023-03-15T10:01:30;9.80;45.60
21502;DHT22;27639;48.674;9.242;2023-03-15T10:03:56;9.70;45.70
21502;DHT22;27639;48.674;9.242;2023-03-15T10:08:56;9.70;46.00
21502;DHT22;27639;48.674;9.242;2023-03-15T10:17:14;9.60;46.00
21502;DHT22;27639;48.674;9.242;2023-03-15T10:19:53;9.60;46.40
21502;DHT22;27639;48.674;9.242;2023-03-15T10:23:02;9.60;46.50
21502;DHT22;27639;48.674;9.242;2023-03-15T10:25:31;9.60;46.30
21502;DHT22;27639;48.674;9.242;2023-03-15T10:28:00;9.60;46.40
21502;DHT22;27639;48.674;9.242;2023-03-15T10:30:29;9.60;46.20
21502;DHT22;27639;48.674;9.242;2023-03-15T10:35:23;9.50;45.10
21502;DHT22;27639;48.674;9.242;2023-03-15T10:37:49;9.40;45.70
21502;DHT22;27639;48.674;9.242;2023-03-15T10:40:15;9.40;46.10
21502;DHT22;27639;48.674;9.242;2023-03-15T10:43:00;9.40;46.30
21502;DHT22;27639;48.674;9.242;2023-03-15T10:45:26;9.50;46.40
21502;DHT22;27639;48.674;9.242;2023-03-15T10:47:53;9.60;46.00
21502;DHT22;27639;48.674;9.242;2023-03-15T10:50:39;9.60;45.20
21502;DHT22;27639;48.674;9.242;2023-03-15T10:53:18;9.70;44.90
21502;DHT22;27639;48.674;9.242;2023-03-15T10:55:46;9.80;44.60
21502;DHT22;27639;48.674;9.242;2023-03-15T10:58:27;9.80;44.90
21502;DHT22;27639;48.674;9.242;2023-03-15T11:01:02;9.90;45.00
21502;DHT22;27639;48.674;9.242;2023-03-15T11:03:33;10.10;44.10
21502;DHT22;27639;48.674;9.242;2023-03-15T11:05:59;10.20;44.30
21502;DHT22;27639;48.674;9.242;2023-03-15T11:08:39;10.40;44.70
21502;DHT22;27639;48.674;9.242;2023-03-15T11:11:06;10.50;43.20
21502;DHT22;27639;48.674;9.242;2023-03-15T11:13:38;10.60;43.20
21502;DHT22;27639;48.674;9.242;2023-03-15T11:19:00;10.70;41.80
21502;DHT22;27639;48.674;9.242;2023-03-15T11:21:32;10.80;41.90
21502;DHT22;27639;48.674;9.242;2023-03-15T11:23:59;10.90;41.80
21502;DHT22;27639;48.674;9.242;2023-03-15T11:26:26;10.80;41.30
21502;DHT22;27639;48.674;9.242;2023-03-15T11:29:06;10.70;40.90
21502;DHT22;27639;48.674;9.242;2023-03-15T11:31:34;10.60;41.10
21502;DHT22;27639;48.674;9.242;2023-03-15T11:36:59;10.30;40.00
21502;DHT22;27639;48.674;9.242;2023-03-15T11:39:40;10.20;40.70
21502;DHT22;27639;48.674;9.242;2023-03-15T11:42:13;10.10;40.90
21502;DHT22;27639;48.674;9.242;2023-03-15T11:44:45;10.10;41.20
21502;DHT22;27639;48.674;9.242;2023-03-15T11:49:57;10.30;41.50
21502;DHT22;27639;48.674;9.242;2023-03-15T11:52:26;10.20;41.60
21502;DHT22;27639;48.674;9.242;2023-03-15T11:54:58;10.20;41.90
21502;DHT22;27639;48.674;9.242;2023-03-15T11:59:56;10.40;42.20
21502;DHT22;27639;48.674;9.242;2023-03-15T12:02:48;10.40;42.00
21502;DHT22;27639;48.674;9.242;2023-03-15T12:05:41;10.40;42.20
21502;DHT22;27639;48.674;9.242;2023-03-15T12:10:47;10.30;41.90
21502;DHT22;27639;48.674;9.242;2023-03-15T12:13:26;10.20;42.10
21502;DHT22;27639;48.674;9.242;2023-03-15T12:15:52;10.20;42.50
21502;DHT22;27639;48.674;9.242;2023-03-15T12:18:21;10.30;43.10
21502;DHT22;27639;48.674;9.242;2023-03-15T12:21:16;10.20;43.60
21502;DHT22;27639;48.674;9.242;2023-03-15T12:26:26;10.10;43.90
21502;DHT22;27639;48.674;9.242;2023-03-15T12:31:23;10.10;44.10
21502;DHT22;27639;48.674;9.242;2023-03-15T12:33:53;10.20;44.00
21502;DHT22;27639;48.674;9.242;2023-03-15T12:36:36;10.30;44.10
21502;DHT22;27639;48.674;9.242;2023-03-15T12:39:36;10.30;43.60
21502;DHT22;27639;48.674;9.242;2023-03-15T12:42:03;10.40;43.80
21502;DHT22;27639;48.674;9.242;2023-03-15T12:46:59;10.60;43.60
21502;DHT22;27639;48.674;9.242;2023-03-15T12:49:29;10.60;43.30
21502;DHT22;27639;48.674;9.242;2023-03-15T12:52:11;10.70;43.30
21502;DHT22;27639;48.674;9.242;2023-03-15T12:57:25;10.70;42.60
21502;DHT22;27639;48.674;9.242;2023-03-15T12:59:58;10.70;42.30
21502;DHT22;27639;48.674;9.242;2023-03-15T13:02:27;10.70;41.80
21502;DHT22;27639;48.674;9.242;2023-03-15T13:19:05;10.80;41.80
21502;DHT22;27639;48.674;9.242;2023-03-15T13:24:47;10.80;41.60
21502;DHT22;27639;48.674;9.242;2023-03-15T13:35:30;10.90;41.20
21502;DHT22;27639;48.674;9.242;2023-03-15T13:38:06;10.90;41.50
21502;DHT22;27639;48.674;9.242;2023-03-15T13:40:33;10.90;41.90
21502;DHT22;27639;48.674;9.242;2023-03-15T13:43:00;10.90;42.20
21502;DHT22;27639;48.674;9.242;2023-03-15T13:45:26;11.00;42.40
21502;DHT22;27639;48.674;9.242;2023-03-15T13:47:52;11.00;42.30
21502;DHT22;27639;48.674;9.242;2023-03-15T13:50:19;11.00;42.30
21502;DHT22;27639;48.674;9.242;2023-03-15T13:52:45;11.10;42.10
21502;DHT22;27639;48.674;9.242;2023-03-15T13:55:19;11.10;42.20
21502;DHT22;27639;48.674;9.242;2023-03-15T13:57:45;11.10;42.30
21502;DHT22;27639;48.674;9.242;2023-03-15T14:00:17;11.10;42.50
21502;DHT22;27639;48.674;9.242;2023-03-15T14:02:59;11.10;42.80
21502;DHT22;27639;48.674;9.242;2023-03-15T14:05:28;11.00;42.90
21502;DHT22;27639;48.674;9.242;2023-03-15T14:08:01;11.00;43.50
21502;DHT22;27639;48.674;9.242;2023-03-15T14:10:33;10.90;43.50
21502;DHT22;27639;48.674;9.242;2023-03-15T14:13:22;10.90;43.60
21502;DHT22;27639;48.674;9.242;2023-03-15T14:15:49;10.70;44.40
21502;DHT22;27639;48.674;9.242;2023-03-15T14:23:25;10.50;45.90
21502;DHT22;27639;48.674;9.242;2023-03-15T14:26:16;10.50;46.00
21502;DHT22;27639;48.674;9.242;2023-03-15T14:28:41;10.50;46.20
21502;DHT22;27639;48.674;9.242;2023-03-15T14:31:22;10.40;46.80
21502;DHT22;27639;48.674;9.242;2023-03-15T14:33:58;10.50;47.20
21502;DHT22;27639;48.674;9.242;2023-03-15T14:36:32;10.70;47.30
21502;DHT22;27639;48.674;9.242;2023-03-15T14:39:00;10.70;47.20
21502;DHT22;27639;48.674;9.242;2023-03-15T14:43:51;10.90;47.20
21502;DHT22;27639;48.674;9.242;2023-03-15T14:46:17;11.00;47.10
21502;DHT22;27639;48.674;9.242;2023-03-15T14:48:43;10.90;46.80
21502;DHT22;27639;48.674;9.242;2023-03-15T14:51:15;11.00;46.80
21502;DHT22;27639;48.674;9.242;2023-03-15T14:53:41;11.00;46.80
21502;DHT22;27639;48.674;9.242;2023-03-15T14:56:10;11.00;46.70
21502;DHT22;27639;48.674;9.242;2023-03-15T14:58:36;11.00;46.60
21502;DHT22;27639;48.674;9.242;2023-03-15T15:01:01;10.90;46.40
21502;DHT22;27639;48.674;9.242;2023-03-15T15:03:52;10.90;46.50
21502;DHT22;27639;48.674;9.242;2023-03-15T15:06:18;10.90;46.30
21502;DHT22;27639;48.674;9.242;2023-03-15T15:08:46;10.80;46.10
21502;DHT22;27639;48.674;9.242;2023-03-15T15:11:13;10.80;46.20
21502;DHT22;27639;48.674;9.242;2023-03-15T15:13:39;10.80;45.90
21502;DHT22;27639;48.674;9.242;2023-03-15T15:16:06;10.70;45.70
21502;DHT22;27639;48.674;9.242;2023-03-15T15:18:33;10.60;45.60
21502;DHT22;27639;48.674;9.242;2023-03-15T15:21:02;10.50;45.50
21502;DHT22;27639;48.674;9.242;2023-03-15T15:23:34;10.40;45.60
21502;DHT22;27639;48.674;9.242;2023-03-15T15:26:01;10.30;45.70
21502;DHT22;27639;48.674;9.242;2023-03-15T15:28:29;10.10;46.00
21502;DHT22;27639;48.674;9.242;2023-03-15T15:30:55;10.10;46.40
21502;DHT22;27639;48.674;9.242;2023-03-15T15:33:21;10.00;46.80
21502;DHT22;27639;48.674;9.242;2023-03-15T15:35:49;10.00;47.20
21502;DHT22;27639;48.674;9.242;2023-03-15T15:38:17;9.90;48.90
21502;DHT22;27639;48.674;9.242;2023-03-15T15:40:43;9.80;49.50
21502;DHT22;27639;48.674;9.242;2023-03-15T15:43:10;9.80;49.90
21502;DHT22;27639;48.674;9.242;2023-03-15T15:45:37;9.70;50.20
21502;DHT22;27639;48.674;9.242;2023-03-15T15:48:02;9.50;50.70
21502;DHT22;27639;48.674;9.242;2023-03-15T15:50:32;9.50;50.70
21502;DHT22;27639;48.674;9.242;2023-03-15T15:52:58;9.40;51.60
21502;DHT22;27639;48.674;9.242;2023-03-15T15:55:28;9.30;52.10
21502;DHT22;27639;48.674;9.242;2023-03-15T15:57:55;9.20;52.10
21502;DHT22;27639;48.674;9.242;2023-03-15T16:00:23;9.10;52.60
21502;DHT22;27639;48.674;9.242;2023-03-15T16:02:50;9.10;52.80
21502;DHT22;27639;48.674;9.242;2023-03-15T16:05:20;9.10;53.20
21502;DHT22;27639;48.674;9.242;2023-03-15T16:07:50;9.10;52.80
21502;DHT22;27639;48.674;9.242;2023-03-15T16:10:23;9.10;53.10
21502;DHT22;27639;48.674;9.242;2023-03-15T16:12:51;9.10;53.00
21502;DHT22;27639;48.674;9.242;2023-03-15T16:15:18;9.00;53.50
21502;DHT22;27639;48.674;9.242;2023-03-15T16:17:44;8.90;53.80
21502;DHT22;27639;48.674;9.242;2023-03-15T16:20:11;8.90;53.90
21502;DHT22;27639;48.674;9.242;2023-03-15T16:22:39;8.90;53.90
21502;DHT22;27639;48.674;9.242;2023-03-15T16:25:15;8.90;54.20
21502;DHT22;27639;48.674;9.242;2023-03-15T16:27:42;8.80;54.10
21502;DHT22;27639;48.674;9.242;2023-03-15T16:30:26;8.80;54.40
21502;DHT22;27639;48.674;9.242;2023-03-15T16:32:53;8.80;54.50
21502;DHT22;27639;48.674;9.242;2023-03-15T16:35:20;8.70;55.40
21502;DHT22;27639;48.674;9.242;2023-03-15T16:37:55;8.70;54.80
21502;DHT22;27639;48.674;9.242;2023-03-15T16:40:25;8.70;54.90
21502;DHT22;27639;48.674;9.242;2023-03-15T16:42:51;8.40;55.30
21502;DHT22;27639;48.674;9.242;2023-03-15T16:45:17;8.40;55.60
21502;DHT22;27639;48.674;9.242;2023-03-15T16:47:43;8.40;55.70
21502;DHT22;27639;48.674;9.242;2023-03-15T16:50:09;8.30;55.70
21502;DHT22;27639;48.674;9.242;2023-03-15T16:52:35;8.30;55.70
21502;DHT22;27639;48.674;9.242;2023-03-15T16:55:01;8.30;55.80
21502;DHT22;27639;48.674;9.242;2023-03-15T16:57:27;8.30;55.90
21502;DHT22;27639;48.674;9.242;2023-03-15T16:59:52;8.20;55.80
21502;DHT22;27639;48.674;9.242;2023-03-15T17:02:26;8.20;55.80
21502;DHT22;27639;48.674;9.242;2023-03-15T17:04:54;8.20;55.90
21502;DHT22;27639;48.674;9.242;2023-03-15T17:07:33;8.10;55.90
21502;DHT22;27639;48.674;9.242;2023-03-15T17:10:07;8.10;55.80
21502;DHT22;27639;48.674;9.242;2023-03-15T17:12:35;8.00;55.80
21502;DHT22;27639;48.674;9.242;2023-03-15T17:15:01;8.00;56.20
21502;DHT22;27639;48.674;9.242;2023-03-15T17:17:28;8.00;56.20